createdAt,value
2023-01-13T00:01:58.940Z,67.16
2023-01-13T00:04:26.703Z,67.11
2023-01-13T00:06:53.956Z,67.87
2023-01-13T00:09:22.807Z,67.58
2023-01-13T00:11:49.901Z,67.95
2023-01-13T00:14:19.476Z,69.08
2023-01-13T00:16:46.337Z,68.95
2023-01-13T00:19:19.947Z,68.88
2023-01-13T00:21:52.213Z,69.80
2023-01-13T00:24:21.853Z,68.50
2023-01-13T00:26:50.094Z,68.93
2023-01-13T00:29:20.204Z,69.57
2023-01-13T00:31:51.768Z,69.71
2023-01-13T00:34:22.009Z,70.16
2023-01-13T00:36:54.661Z,70.16
2023-01-13T00:39:22.805Z,70.91
2023-01-13T00:42:08.103Z,70.31
2023-01-13T00:44:34.966Z,70.39
2023-01-13T00:47:05.815Z,70.09
2023-01-13T00:49:33.856Z,70.75
2023-01-13T00:52:16.157Z,69.66
2023-01-13T00:54:43.450Z,71.43
2023-01-13T00:57:11.004Z,70.71
2023-01-13T00:59:44.501Z,68.21
2023-01-13T01:02:14.567Z,65.97
2023-01-13T01:04:41.542Z,66.45
2023-01-13T01:07:08.902Z,66.76
2023-01-13T01:09:39.569Z,67.48
2023-01-13T01:12:07.530Z,67.87
2023-01-13T01:14:39.150Z,69.14
2023-01-13T01:17:06.587Z,69.27
2023-01-13T01:19:33.466Z,68.99
2023-01-13T01:22:02.745Z,68.31
2023-01-13T01:24:32.086Z,70.29
2023-01-13T01:26:59.830Z,69.13
2023-01-13T01:29:29.949Z,67.17
2023-01-13T01:31:59.297Z,66.90
2023-01-13T01:34:28.784Z,67.02
2023-01-13T01:36:55.708Z,67.68
2023-01-13T01:39:22.504Z,67.73
2023-01-13T01:42:08.076Z,68.21
2023-01-13T01:44:43.863Z,68.81
2023-01-13T01:47:14.255Z,69.32
2023-01-13T01:49:48.379Z,70.10
2023-01-13T01:52:30.046Z,70.26
2023-01-13T01:55:06.959Z,69.99
2023-01-13T01:57:40.134Z,70.55
2023-01-13T02:00:10.772Z,70.52
2023-01-13T02:02:41.056Z,68.92
2023-01-13T02:05:10.939Z,69.12
2023-01-13T02:07:45.129Z,69.23
2023-01-13T02:10:20.266Z,68.42
2023-01-13T02:12:48.675Z,70.72
2023-01-13T02:15:35.676Z,66.75
2023-01-13T02:18:02.885Z,67.36
2023-01-13T02:20:54.390Z,68.93
2023-01-13T02:24:26.650Z,66.88
2023-01-13T02:27:14.439Z,67.56
2023-01-13T02:30:29.970Z,68.26
2023-01-13T02:33:12.997Z,64.35
2023-01-13T02:35:54.194Z,65.66
2023-01-13T02:38:29.031Z,67.44
2023-01-13T02:41:27.784Z,67.35
2023-01-13T02:44:07.822Z,68.23
2023-01-13T02:46:43.422Z,69.10
2023-01-13T02:49:26.904Z,69.37
2023-01-13T02:51:56.834Z,69.89
2023-01-13T02:54:29.385Z,70.37
2023-01-13T02:56:58.919Z,70.97
2023-01-13T02:59:27.987Z,71.36
2023-01-13T03:01:58.100Z,71.07
2023-01-13T03:04:57.273Z,71.66
2023-01-13T03:07:42.955Z,71.53
2023-01-13T03:10:15.894Z,71.66
2023-01-13T03:13:41.953Z,71.28
2023-01-13T03:16:10.395Z,71.97
2023-01-13T03:19:16.138Z,67.15
2023-01-13T03:22:25.573Z,64.13
2023-01-13T03:25:01.190Z,64.24
2023-01-13T03:27:52.075Z,64.21
2023-01-13T03:30:53.632Z,65.83
2023-01-13T03:33:27.333Z,66.35
2023-01-13T03:36:00.941Z,64.06
2023-01-13T03:38:42.455Z,62.41
2023-01-13T03:41:28.018Z,60.76
2023-01-13T03:44:25.737Z,62.61
2023-01-13T03:47:30.808Z,66.21
2023-01-13T03:50:42.461Z,63.23
2023-01-13T03:53:20.575Z,62.11
2023-01-13T03:56:05.923Z,61.87
2023-01-13T03:58:49.502Z,60.30
2023-01-13T04:01:27.060Z,60.32
2023-01-13T04:04:24.520Z,62.50
2023-01-13T04:07:26.640Z,64.46
2023-01-13T04:09:56.798Z,65.65
2023-01-13T04:12:27.409Z,66.99
2023-01-13T04:14:56.864Z,67.18
2023-01-13T04:17:30.552Z,67.93
2023-01-13T04:19:59.758Z,68.34
2023-01-13T04:22:30.686Z,69.33
2023-01-13T04:25:08.073Z,69.33
2023-01-13T04:27:43.693Z,69.70
2023-01-13T04:30:11.413Z,69.80
2023-01-13T04:32:38.194Z,70.59
2023-01-13T04:35:18.009Z,69.89
2023-01-13T04:37:51.100Z,70.49
2023-01-13T04:40:20.731Z,71.08
2023-01-13T04:42:52.736Z,71.33
2023-01-13T04:45:31.232Z,71.14
2023-01-13T04:47:58.785Z,72.08
2023-01-13T04:50:30.910Z,72.06
2023-01-13T04:53:06.641Z,73.61
2023-01-13T04:55:36.247Z,71.46
2023-01-13T04:58:07.964Z,67.70
2023-01-13T05:00:40.219Z,67.42
2023-01-13T05:03:07.400Z,67.41
2023-01-13T05:05:43.402Z,68.44
2023-01-13T05:08:11.593Z,69.86
2023-01-13T05:10:43.762Z,69.47
2023-01-13T05:13:31.498Z,69.78
2023-01-13T05:16:35.813Z,68.73
2023-01-13T05:19:06.789Z,69.23
2023-01-13T05:21:58.302Z,69.64
2023-01-13T05:24:44.190Z,69.79
2023-01-13T05:27:15.112Z,69.96
2023-01-13T05:50:33.669Z,67.79
2023-01-13T05:56:28.798Z,68.01
2023-01-13T06:22:49.515Z,69.28
2023-01-13T06:36:01.426Z,70.99
2023-01-13T06:38:31.520Z,69.94
2023-01-13T06:41:00.748Z,69.88
2023-01-13T06:50:42.544Z,69.19
2023-01-13T06:53:10.014Z,69.50
2023-01-13T06:55:37.131Z,69.43
2023-01-13T06:58:16.071Z,68.57
2023-01-13T07:08:28.885Z,68.11
2023-01-13T07:18:42.769Z,67.79
2023-01-13T07:21:13.290Z,67.42
2023-01-13T07:29:56.840Z,68.44
2023-01-13T07:32:33.958Z,68.52
2023-01-13T07:35:11.626Z,67.33
2023-01-13T07:37:39.831Z,66.62
2023-01-13T07:43:36.739Z,67.31
2023-01-13T07:46:13.458Z,67.39
2023-01-13T07:48:40.928Z,67.86
2023-01-13T07:51:11.825Z,67.07
2023-01-13T07:53:39.078Z,66.73
2023-01-13T07:56:10.733Z,66.44
2023-01-13T07:58:37.994Z,66.43
2023-01-13T08:01:20.291Z,66.23
2023-01-13T08:07:42.509Z,65.51
2023-01-13T08:10:17.602Z,63.73
2023-01-13T08:13:03.828Z,64.49
2023-01-13T08:19:38.430Z,64.42
2023-01-13T08:22:09.362Z,64.81
2023-01-13T08:24:36.164Z,65.06
2023-01-13T08:27:02.835Z,64.90
2023-01-13T08:33:26.559Z,65.16
2023-01-13T08:36:05.088Z,65.03
2023-01-13T08:38:32.515Z,65.10
2023-01-13T08:51:59.038Z,65.35
2023-01-13T09:12:51.531Z,63.23
2023-01-13T09:22:27.661Z,64.00
2023-01-13T09:24:57.597Z,62.25
2023-01-13T09:27:25.076Z,62.95
2023-01-13T09:29:51.814Z,60.12
2023-01-13T09:36:30.285Z,60.21
2023-01-13T09:38:59.758Z,59.62
2023-01-13T09:42:03.327Z,60.15
2023-01-13T09:44:41.525Z,59.23
2023-01-13T09:47:20.419Z,57.38
2023-01-13T10:00:39.618Z,59.41
2023-01-13T10:03:15.537Z,60.10
2023-01-13T10:06:01.155Z,62.30
2023-01-13T10:08:41.967Z,60.84
2023-01-13T10:14:42.148Z,58.68
2023-01-13T10:17:18.833Z,58.38
2023-01-13T10:33:28.688Z,57.26
2023-01-13T10:36:02.808Z,56.60
2023-01-13T10:38:29.891Z,57.50
2023-01-13T10:41:04.867Z,56.30
2023-01-13T10:43:32.171Z,56.62
2023-01-13T10:46:24.386Z,58.06
2023-01-13T10:52:58.469Z,58.74
2023-01-13T11:26:27.604Z,59.07
2023-01-13T11:29:21.044Z,59.51
2023-01-13T11:35:20.665Z,58.47
2023-01-13T11:38:02.964Z,60.56
2023-01-13T11:44:17.169Z,59.23
2023-01-13T12:04:25.841Z,59.18
2023-01-13T12:07:14.336Z,58.88
2023-01-13T12:10:18.209Z,59.37
2023-01-13T12:12:47.619Z,59.30
2023-01-13T12:15:46.909Z,58.79
2023-01-13T12:18:39.692Z,58.30
2023-01-13T12:21:15.165Z,58.49
2023-01-13T12:24:06.184Z,59.59
2023-01-13T12:26:45.866Z,58.23
2023-01-13T12:29:24.668Z,58.78
2023-01-13T12:31:55.635Z,58.54
2023-01-13T12:34:50.685Z,58.26
2023-01-13T12:37:44.983Z,58.46
2023-01-13T12:40:25.701Z,57.45
2023-01-13T12:43:39.978Z,57.08
2023-01-13T12:46:28.916Z,59.05
2023-01-13T12:49:07.812Z,57.82
2023-01-13T12:51:55.649Z,56.52
2023-01-13T12:54:58.060Z,55.57
2023-01-13T12:57:36.833Z,56.93
2023-01-13T13:00:03.580Z,55.97
2023-01-13T13:02:35.745Z,58.99
2023-01-13T13:05:28.920Z,56.68
2023-01-13T13:08:31.477Z,58.17
2023-01-13T13:11:46.007Z,54.24
2023-01-13T13:14:14.461Z,58.31
2023-01-13T13:16:52.845Z,56.17
2023-01-13T13:19:21.318Z,57.03
2023-01-13T13:22:08.774Z,54.42
2023-01-13T13:24:35.798Z,54.94
2023-01-13T13:27:20.069Z,55.15
2023-01-13T13:29:59.919Z,55.82
2023-01-13T13:32:41.786Z,54.06
2023-01-13T13:35:17.701Z,53.27
2023-01-13T13:38:37.449Z,53.26
2023-01-13T13:41:46.792Z,49.74
2023-01-13T13:44:36.665Z,49.49
2023-01-13T13:47:06.996Z,50.62
2023-01-13T13:49:51.720Z,49.93
2023-01-13T13:52:39.375Z,50.17
2023-01-13T13:55:18.831Z,51.45
2023-01-13T13:57:58.733Z,51.78
2023-01-13T14:00:42.410Z,52.33
2023-01-13T14:03:25.545Z,51.87
2023-01-13T14:06:03.247Z,52.16
2023-01-13T14:08:36.053Z,53.13
2023-01-13T14:11:32.575Z,53.13
2023-01-13T14:14:17.010Z,53.62
2023-01-13T14:16:51.374Z,54.71
2023-01-13T14:19:35.265Z,58.64
2023-01-13T14:22:23.513Z,55.56
2023-01-13T14:24:55.761Z,57.07
2023-01-13T14:27:35.415Z,58.46
2023-01-13T14:30:10.006Z,56.82
2023-01-13T14:32:47.998Z,57.12
2023-01-13T14:35:17.864Z,59.32
2023-01-13T14:37:52.852Z,58.62
2023-01-13T14:40:49.756Z,57.35
2023-01-13T14:43:28.755Z,59.18
2023-01-13T14:46:04.016Z,57.56
2023-01-13T14:48:36.141Z,57.58
2023-01-13T14:51:17.339Z,57.68
2023-01-13T14:53:47.272Z,59.50
2023-01-13T14:56:48.151Z,59.07
2023-01-13T15:00:02.914Z,56.32
2023-01-13T15:02:36.531Z,56.77
2023-01-13T15:05:31.023Z,58.74
2023-01-13T15:08:16.639Z,56.25
2023-01-13T15:11:00.044Z,51.00
2023-01-13T15:13:53.188Z,55.55
2023-01-13T15:16:33.958Z,57.13
2023-01-13T15:19:03.612Z,56.20
2023-01-13T15:21:30.356Z,53.99
2023-01-13T15:23:59.880Z,52.27
2023-01-13T15:26:36.364Z,57.75
2023-01-13T15:29:03.887Z,53.91
2023-01-13T15:31:32.441Z,58.20
2023-01-13T15:34:00.578Z,54.59
2023-01-13T15:36:35.657Z,56.60
2023-01-13T15:39:08.647Z,55.01
2023-01-13T15:41:54.722Z,56.02
2023-01-13T15:44:41.453Z,56.21
2023-01-13T15:47:14.768Z,58.27
2023-01-13T15:49:53.467Z,58.84
2023-01-13T15:52:25.018Z,58.12
2023-01-13T15:55:04.102Z,57.81
2023-01-13T15:57:41.092Z,58.75
2023-01-13T16:00:22.970Z,59.02
2023-01-13T16:02:56.274Z,60.44
2023-01-13T16:05:37.918Z,61.03
2023-01-13T16:08:05.008Z,60.97
2023-01-13T16:10:35.412Z,60.79
2023-01-13T16:13:13.055Z,61.70
2023-01-13T16:15:47.664Z,62.19
2023-01-13T16:18:34.684Z,62.63
2023-01-13T16:21:03.484Z,62.29
2023-01-13T16:23:39.965Z,62.24
2023-01-13T16:26:24.409Z,62.45
2023-01-13T16:28:59.203Z,63.78
2023-01-13T16:31:39.672Z,63.45
2023-01-13T16:34:15.368Z,63.34
2023-01-13T16:36:50.957Z,63.72
2023-01-13T16:39:23.996Z,64.96
2023-01-13T16:41:50.904Z,65.90
2023-01-13T16:44:29.026Z,64.96
2023-01-13T16:47:07.787Z,64.27
2023-01-13T16:49:34.763Z,64.73
2023-01-13T16:52:01.555Z,65.34
2023-01-13T16:54:29.029Z,64.89
2023-01-13T16:57:05.510Z,65.02
2023-01-13T16:59:32.245Z,64.68
2023-01-13T17:01:59.463Z,65.36
2023-01-13T17:04:29.910Z,65.11
2023-01-13T17:07:06.242Z,65.86
2023-01-13T17:09:39.373Z,66.21
2023-01-13T17:12:06.484Z,66.16
2023-01-13T17:14:33.356Z,66.15
2023-01-13T17:17:00.537Z,66.28
2023-01-13T17:19:39.297Z,66.30
2023-01-13T17:22:06.127Z,66.74
2023-01-13T17:24:35.411Z,66.32
2023-01-13T17:27:13.920Z,66.62
2023-01-13T17:29:41.430Z,65.46
2023-01-13T17:32:17.644Z,64.60
2023-01-13T17:34:45.226Z,64.42
2023-01-13T17:37:18.129Z,64.19
2023-01-13T17:39:51.383Z,65.28
2023-01-13T17:42:18.662Z,64.85
2023-01-13T17:44:47.012Z,65.72
2023-01-13T17:47:21.581Z,63.85
2023-01-13T17:49:50.480Z,63.99
2023-01-13T17:52:17.636Z,63.64
2023-01-13T17:54:50.968Z,64.01
2023-01-13T17:57:29.881Z,65.00
2023-01-13T18:00:14.715Z,66.87
2023-01-13T18:02:43.791Z,65.56
2023-01-13T18:05:10.720Z,64.82
2023-01-13T18:07:43.691Z,65.37
2023-01-13T18:10:14.475Z,66.65
2023-01-13T18:12:54.918Z,65.99
2023-01-13T18:15:26.588Z,65.89
2023-01-13T18:17:55.644Z,66.19
2023-01-13T18:20:42.564Z,66.64
2023-01-13T18:23:39.363Z,66.93
2023-01-13T18:26:54.392Z,66.80
2023-01-13T18:29:39.420Z,67.52
2023-01-13T18:32:09.710Z,67.02
2023-01-13T18:34:58.695Z,68.29
2023-01-13T18:40:33.658Z,66.54
2023-01-13T18:43:06.377Z,66.72
2023-01-13T18:45:51.795Z,67.47
2023-01-13T18:48:27.783Z,67.79
2023-01-13T18:51:02.776Z,67.19
2023-01-13T18:53:36.335Z,66.65
2023-01-13T18:56:24.723Z,65.69
2023-01-13T18:59:07.817Z,65.83
2023-01-13T19:01:49.812Z,65.19
2023-01-13T19:04:32.565Z,65.27
2023-01-13T19:07:15.379Z,66.03
2023-01-13T19:10:00.114Z,66.15
2023-01-13T19:12:46.430Z,66.74
2023-01-13T19:15:26.050Z,66.87
2023-01-13T19:18:01.566Z,67.75
2023-01-13T19:20:39.213Z,67.81
2023-01-13T19:23:18.802Z,66.42
2023-01-13T19:25:47.786Z,66.79
2023-01-13T19:28:29.119Z,65.34
2023-01-13T19:31:14.734Z,65.19
2023-01-13T19:33:51.613Z,65.51
2023-01-13T19:36:36.660Z,66.02
2023-01-13T19:39:15.092Z,66.34
2023-01-13T19:42:09.331Z,67.21
2023-01-13T19:45:00.216Z,67.02
2023-01-13T19:47:45.906Z,66.66
2023-01-13T19:50:15.932Z,67.32
2023-01-13T19:52:51.259Z,67.35
2023-01-13T19:55:22.508Z,67.72
2023-01-13T19:58:02.951Z,67.73
2023-01-13T20:00:42.107Z,67.33
2023-01-13T20:03:22.501Z,68.20
2023-01-13T20:06:03.331Z,67.78
2023-01-13T20:08:36.839Z,67.57
2023-01-13T20:11:22.992Z,67.80
2023-01-13T20:13:52.214Z,68.13
2023-01-13T20:16:19.285Z,68.10
2023-01-13T20:19:01.567Z,67.89
2023-01-13T20:21:37.887Z,68.00
2023-01-13T20:24:13.104Z,66.52
2023-01-13T20:26:52.623Z,67.01
2023-01-13T20:29:31.632Z,66.64
2023-01-13T20:32:10.473Z,65.88
2023-01-13T20:34:40.581Z,65.44
2023-01-13T20:37:14.594Z,65.21
2023-01-13T20:39:51.203Z,66.07
2023-01-13T20:42:30.918Z,66.80
2023-01-13T20:45:10.286Z,67.32
2023-01-13T20:47:42.418Z,67.62
2023-01-13T20:50:11.932Z,67.84
2023-01-13T20:52:50.093Z,68.00
2023-01-13T20:55:26.899Z,68.21
2023-01-13T20:58:09.234Z,67.79
2023-01-13T21:00:45.111Z,68.07
2023-01-13T21:03:25.436Z,67.05
2023-01-13T21:05:57.110Z,67.48
2023-01-13T21:08:24.704Z,67.63
2023-01-13T21:11:14.068Z,67.69
2023-01-13T21:14:08.014Z,66.34
2023-01-13T21:16:44.795Z,67.33
2023-01-13T21:19:24.118Z,66.66
2023-01-13T21:22:04.745Z,67.40
2023-01-13T21:24:45.115Z,68.01
2023-01-13T21:27:25.042Z,67.81
2023-01-13T21:29:53.169Z,68.41
2023-01-13T21:32:36.467Z,68.09
2023-01-13T21:35:07.297Z,68.23
2023-01-13T21:37:43.355Z,68.54
2023-01-13T21:40:17.860Z,69.32
2023-01-13T21:43:08.336Z,70.77
2023-01-13T21:46:04.734Z,69.41
2023-01-13T21:48:43.163Z,67.88
2023-01-13T21:51:20.915Z,68.54
2023-01-13T21:53:54.771Z,68.67
2023-01-13T21:56:33.492Z,69.02
2023-01-13T21:59:08.034Z,69.69
2023-01-13T22:02:23.022Z,70.16
2023-01-13T22:04:46.249Z,70.27
2023-01-13T22:07:27.260Z,70.11
2023-01-13T22:10:01.162Z,70.65
2023-01-13T22:12:29.724Z,70.55
2023-01-13T22:15:04.376Z,70.83
2023-01-13T22:17:37.539Z,71.91
2023-01-13T22:20:22.629Z,71.74
2023-01-13T22:22:52.366Z,72.94
2023-01-13T22:25:29.837Z,73.08
2023-01-13T22:28:10.641Z,70.51
2023-01-13T22:30:39.844Z,70.09
2023-01-13T22:33:06.940Z,71.52
2023-01-13T22:35:34.708Z,68.48
2023-01-13T22:38:04.465Z,68.65
2023-01-13T22:40:31.661Z,69.16
2023-01-13T22:43:01.707Z,69.81
2023-01-13T22:45:28.626Z,70.73
2023-01-13T22:48:03.353Z,71.88
2023-01-13T22:50:39.838Z,72.76
2023-01-13T22:53:11.872Z,73.07
2023-01-13T22:55:38.855Z,73.67
2023-01-13T22:58:21.135Z,74.59
2023-01-13T23:00:50.285Z,74.42
2023-01-13T23:03:23.934Z,70.11
2023-01-13T23:06:05.548Z,68.08
2023-01-13T23:08:43.233Z,69.99
2023-01-13T23:11:12.779Z,71.20
2023-01-13T23:13:42.959Z,74.53
2023-01-13T23:16:20.395Z,68.09
2023-01-13T23:18:49.226Z,68.03
2023-01-13T23:21:40.223Z,69.45
2023-01-13T23:24:22.252Z,70.97
2023-01-13T23:26:56.010Z,71.85
2023-01-13T23:29:39.444Z,72.72
2023-01-13T23:32:23.162Z,73.90
2023-01-13T23:41:14.084Z,70.48
2023-01-13T23:44:07.034Z,73.42
2023-01-13T23:46:53.495Z,71.12
2023-01-13T23:49:31.518Z,71.56
2023-01-13T23:52:11.876Z,72.19
2023-01-13T23:54:43.353Z,73.18
2023-01-13T23:57:15.166Z,72.96
2023-01-13T23:59:48.192Z,73.25
